sensor_id;sensor_type;location;lat;lon;timestamp;pressure;altitude;pressure_sealevel;temperature;humidity
9307;BME280;4691;47.612;7.610;2023-01-30T00:00:12;99479.84;;;-2.59;100.00
9307;BME280;4691;47.612;7.610;2023-01-30T00:02:38;99477.25;;;-2.63;100.00
9307;BME280;4691;47.612;7.610;2023-01-30T00:05:03;99471.16;;;-2.61;100.00
9307;BME280;4691;47.612;7.610;2023-01-30T00:07:29;99464.13;;;-2.58;100.00
9307;BME280;4691;47.612;7.610;2023-01-30T00:09:54;99446.53;;;-2.48;100.00
9307;BME280;4691;47.612;7.610;2023-01-30T00:12:19;99449.22;;;-2.54;100.00
9307;BME280;4691;47.612;7.610;2023-01-30T00:14:44;99443.22;;;-2.63;100.00
9307;BME280;4691;47.612;7.610;2023-01-30T00:17:10;99442.44;;;-2.68;100.00
9307;BME280;4691;47.612;7.610;2023-01-30T00:19:35;99443.31;;;-2.69;100.00
9307;BME280;4691;47.612;7.610;2023-01-30T00:22:00;99439.09;;;-2.79;100.00
9307;BME280;4691;47.612;7.610;2023-01-30T00:24:26;99432.16;;;-2.83;100.00
9307;BME280;4691;47.612;7.610;2023-01-30T00:26:51;99420.00;;;-2.86;100.00
9307;BME280;4691;47.612;7.610;2023-01-30T00:29:16;99405.97;;;-2.81;100.00
9307;BME280;4691;47.612;7.610;2023-01-30T00:31:41;99394.72;;;-2.87;100.00
9307;BME280;4691;47.612;7.610;2023-01-30T00:34:07;99382.44;;;-2.83;100.00
9307;BME280;4691;47.612;7.610;2023-01-30T00:36:32;99376.38;;;-2.85;100.00
9307;BME280;4691;47.612;7.610;2023-01-30T00:38:57;99375.59;;;-2.93;100.00
9307;BME280;4691;47.612;7.610;2023-01-30T00:41:23;99373.03;;;-2.95;100.00
9307;BME280;4691;47.612;7.610;2023-01-30T00:43:48;99377.41;;;-2.95;100.00
9307;BME280;4691;47.612;7.610;2023-01-30T00:46:33;99365.19;;;-2.96;100.00
9307;BME280;4691;47.612;7.610;2023-01-30T00:49:17;99373.19;;;-3.05;100.00
9307;BME280;4691;47.612;7.610;2023-01-30T00:51:42;99367.06;;;-3.03;100.00
9307;BME280;4691;47.612;7.610;2023-01-30T00:54:08;99375.81;;;-3.09;100.00
9307;BME280;4691;47.612;7.610;2023-01-30T00:56:33;99364.38;;;-3.00;100.00
9307;BME280;4691;47.612;7.610;2023-01-30T00:58:59;99363.41;;;-2.94;100.00
9307;BME280;4691;47.612;7.610;2023-01-30T01:01:24;99360.00;;;-2.99;100.00
9307;BME280;4691;47.612;7.610;2023-01-30T01:03:49;99360.81;;;-2.96;100.00
9307;BME280;4691;47.612;7.610;2023-01-30T01:06:15;99367.91;;;-3.02;100.00
9307;BME280;4691;47.612;7.610;2023-01-30T01:08:40;99356.47;;;-2.95;100.00
9307;BME280;4691;47.612;7.610;2023-01-30T01:11:05;99344.19;;;-2.90;100.00
9307;BME280;4691;47.612;7.610;2023-01-30T01:13:31;99344.06;;;-2.84;100.00
9307;BME280;4691;47.612;7.610;2023-01-30T01:15:56;99341.41;;;-2.79;100.00
9307;BME280;4691;47.612;7.610;2023-01-30T01:18:21;99339.53;;;-2.73;100.00
9307;BME280;4691;47.612;7.610;2023-01-30T01:20:46;99334.34;;;-2.76;100.00
9307;BME280;4691;47.612;7.610;2023-01-30T01:23:12;99327.44;;;-2.80;100.00
9307;BME280;4691;47.612;7.610;2023-01-30T01:25:37;99326.59;;;-2.82;100.00
9307;BME280;4691;47.612;7.610;2023-01-30T01:28:03;99320.44;;;-2.79;100.00
9307;BME280;4691;47.612;7.610;2023-01-30T01:30:28;99326.44;;;-2.73;100.00
9307;BME280;4691;47.612;7.610;2023-01-30T01:32:55;99324.66;;;-2.69;100.00
9307;BME280;4691;47.612;7.610;2023-01-30T01:35:20;99335.97;;;-2.67;100.00
9307;BME280;4691;47.612;7.610;2023-01-30T01:37:46;99345.47;;;-2.61;100.00
9307;BME280;4691;47.612;7.610;2023-01-30T01:40:17;99357.28;;;-2.39;100.00
9307;BME280;4691;47.612;7.610;2023-01-30T01:43:01;99373.00;;;-2.39;100.00
9307;BME280;4691;47.612;7.610;2023-01-30T01:45:28;99386.03;;;-2.34;100.00
9307;BME280;4691;47.612;7.610;2023-01-30T01:48:07;99400.16;;;-2.43;100.00
9307;BME280;4691;47.612;7.610;2023-01-30T01:50:47;99409.88;;;-2.50;100.00
9307;BME280;4691;47.612;7.610;2023-01-30T01:53:16;99416.97;;;-2.56;100.00
9307;BME280;4691;47.612;7.610;2023-01-30T01:55:44;99421.13;;;-2.43;100.00
9307;BME280;4691;47.612;7.610;2023-01-30T01:58:15;99435.94;;;-2.42;100.00
9307;BME280;4691;47.612;7.610;2023-01-30T02:00:44;99438.22;;;-2.21;100.00
9307;BME280;4691;47.612;7.610;2023-01-30T02:03:14;99459.72;;;-2.00;100.00
9307;BME280;4691;47.612;7.610;2023-01-30T02:05:43;99478.88;;;-1.97;100.00
9307;BME280;4691;47.612;7.610;2023-01-30T02:13:16;99537.09;;;-1.76;100.00
9307;BME280;4691;47.612;7.610;2023-01-30T02:15:42;99563.31;;;-1.76;100.00
9307;BME280;4691;47.612;7.610;2023-01-30T02:18:07;99577.28;;;-1.74;100.00
9307;BME280;4691;47.612;7.610;2023-01-30T02:36:53;99598.31;;;-1.77;100.00
9307;BME280;4691;47.612;7.610;2023-01-30T02:42:24;99585.09;;;-1.72;100.00
9307;BME280;4691;47.612;7.610;2023-01-30T02:47:40;99624.31;;;-1.65;100.00
9307;BME280;4691;47.612;7.610;2023-01-30T02:50:11;99606.88;;;-1.66;100.00
9307;BME280;4691;47.612;7.610;2023-01-30T02:52:38;99610.94;;;-1.48;100.00
9307;BME280;4691;47.612;7.610;2023-01-30T02:55:19;99620.72;;;-1.56;100.00
9307;BME280;4691;47.612;7.610;2023-01-30T02:57:44;99623.56;;;-1.71;100.00
9307;BME280;4691;47.612;7.610;2023-01-30T03:00:11;99620.22;;;-1.83;100.00
9307;BME280;4691;47.612;7.610;2023-01-30T03:03:01;99613.22;;;-1.81;100.00
9307;BME280;4691;47.612;7.610;2023-01-30T03:10:48;99615.47;;;-1.56;100.00
9307;BME280;4691;47.612;7.610;2023-01-30T03:19:30;99630.84;;;-1.35;100.00
9307;BME280;4691;47.612;7.610;2023-01-30T03:21:56;99640.41;;;-1.30;100.00
9307;BME280;4691;47.612;7.610;2023-01-30T03:24:21;99651.69;;;-1.25;100.00
9307;BME280;4691;47.612;7.610;2023-01-30T03:27:06;99657.81;;;-1.26;100.00
9307;BME280;4691;47.612;7.610;2023-01-30T03:29:32;99663.06;;;-1.26;100.00
9307;BME280;4691;47.612;7.610;2023-01-30T03:31:58;99666.53;;;-1.24;100.00
9307;BME280;4691;47.612;7.610;2023-01-30T03:34:23;99646.28;;;-1.16;100.00
9307;BME280;4691;47.612;7.610;2023-01-30T03:36:49;99637.53;;;-1.15;100.00
9307;BME280;4691;47.612;7.610;2023-01-30T03:39:14;99640.19;;;-1.18;100.00
9307;BME280;4691;47.612;7.610;2023-01-30T03:41:39;99641.09;;;-1.21;100.00
9307;BME280;4691;47.612;7.610;2023-01-30T03:44:05;99645.47;;;-1.21;100.00
9307;BME280;4691;47.612;7.610;2023-01-30T03:46:30;99639.50;;;-1.29;100.00
9307;BME280;4691;47.612;7.610;2023-01-30T03:48:55;99636.94;;;-1.33;100.00
9307;BME280;4691;47.612;7.610;2023-01-30T03:51:21;99627.47;;;-1.43;100.00
9307;BME280;4691;47.612;7.610;2023-01-30T03:53:46;99637.91;;;-1.38;100.00
9307;BME280;4691;47.612;7.610;2023-01-30T03:56:11;99634.31;;;-1.33;100.00
9307;BME280;4691;47.612;7.610;2023-01-30T03:58:37;99623.81;;;-1.33;100.00
9307;BME280;4691;47.612;7.610;2023-01-30T04:01:02;99622.22;;;-1.43;100.00
9307;BME280;4691;47.612;7.610;2023-01-30T04:03:27;99619.47;;;-1.34;100.00
9307;BME280;4691;47.612;7.610;2023-01-30T04:05:52;99616.06;;;-1.39;100.00
9307;BME280;4691;47.612;7.610;2023-01-30T04:08:18;99610.81;;;-1.40;100.00
9307;BME280;4691;47.612;7.610;2023-01-30T04:10:43;99630.22;;;-1.49;100.00
9307;BME280;4691;47.612;7.610;2023-01-30T04:13:08;99638.22;;;-1.58;100.00
9307;BME280;4691;47.612;7.610;2023-01-30T04:15:34;99619.59;;;-1.41;100.00
9307;BME280;4691;47.612;7.610;2023-01-30T04:17:59;99601.91;;;-1.32;100.00
9307;BME280;4691;47.612;7.610;2023-01-30T04:20:24;99602.03;;;-1.38;100.00
9307;BME280;4691;47.612;7.610;2023-01-30T04:22:49;99593.25;;;-1.37;100.00
9307;BME280;4691;47.612;7.610;2023-01-30T04:25:15;99592.41;;;-1.37;100.00
9307;BME280;4691;47.612;7.610;2023-01-30T04:27:40;99586.44;;;-1.47;100.00
9307;BME280;4691;47.612;7.610;2023-01-30T04:30:06;99586.59;;;-1.56;100.00
9307;BME280;4691;47.612;7.610;2023-01-30T04:32:32;99592.66;;;-1.52;100.00
9307;BME280;4691;47.612;7.610;2023-01-30T04:34:57;99601.38;;;-1.49;100.00
9307;BME280;4691;47.612;7.610;2023-01-30T04:37:22;99600.56;;;-1.54;100.00
9307;BME280;4691;47.612;7.610;2023-01-30T04:39:47;99616.19;;;-1.48;100.00
9307;BME280;4691;47.612;7.610;2023-01-30T04:42:13;99621.38;;;-1.45;100.00
9307;BME280;4691;47.612;7.610;2023-01-30T04:44:39;99614.25;;;-1.37;100.00
9307;BME280;4691;47.612;7.610;2023-01-30T04:47:04;99605.56;;;-1.39;100.00
9307;BME280;4691;47.612;7.610;2023-01-30T04:49:29;99603.72;;;-1.34;100.00
9307;BME280;4691;47.612;7.610;2023-01-30T04:51:54;99608.84;;;-1.27;100.00
9307;BME280;4691;47.612;7.610;2023-01-30T04:54:20;99606.28;;;-1.30;100.00
9307;BME280;4691;47.612;7.610;2023-01-30T04:56:45;99603.44;;;-1.18;100.00
9307;BME280;4691;47.612;7.610;2023-01-30T04:59:10;99598.16;;;-1.15;100.00
9307;BME280;4691;47.612;7.610;2023-01-30T05:01:37;99598.75;;;-1.01;100.00
9307;BME280;4691;47.612;7.610;2023-01-30T05:04:03;99601.50;;;-1.07;100.00
9307;BME280;4691;47.612;7.610;2023-01-30T05:06:29;99613.66;;;-1.03;100.00
9307;BME280;4691;47.612;7.610;2023-01-30T05:08:56;99620.72;;;-1.05;100.00
9307;BME280;4691;47.612;7.610;2023-01-30T05:11:22;99631.22;;;-1.05;100.00
9307;BME280;4691;47.612;7.610;2023-01-30T05:13:48;99632.06;;;-1.04;100.00
9307;BME280;4691;47.612;7.610;2023-01-30T05:16:14;99639.97;;;-1.06;100.00
9307;BME280;4691;47.612;7.610;2023-01-30T05:18:40;99647.00;;;-1.08;100.00
9307;BME280;4691;47.612;7.610;2023-01-30T05:21:08;99650.50;;;-1.07;100.00
9307;BME280;4691;47.612;7.610;2023-01-30T05:23:34;99655.72;;;-1.06;100.00
9307;BME280;4691;47.612;7.610;2023-01-30T05:25:59;99653.13;;;-1.07;100.00
9307;BME280;4691;47.612;7.610;2023-01-30T05:28:25;99647.72;;;-0.98;100.00
9307;BME280;4691;47.612;7.610;2023-01-30T05:30:50;99653.78;;;-0.95;100.00
9307;BME280;4691;47.612;7.610;2023-01-30T05:33:16;99643.31;;;-0.98;100.00
9307;BME280;4691;47.612;7.610;2023-01-30T05:35:48;99647.75;;;-1.00;100.00
9307;BME280;4691;47.612;7.610;2023-01-30T05:38:14;99657.28;;;-0.96;100.00
9307;BME280;4691;47.612;7.610;2023-01-30T05:40:39;99655.44;;;-0.91;100.00
9307;BME280;4691;47.612;7.610;2023-01-30T05:43:05;99666.84;;;-0.92;100.00
9307;BME280;4691;47.612;7.610;2023-01-30T05:45:30;99673.75;;;-0.84;100.00
9307;BME280;4691;47.612;7.610;2023-01-30T05:47:55;99667.53;;;-0.80;100.00
9307;BME280;4691;47.612;7.610;2023-01-30T05:50:21;99664.03;;;-0.82;100.00
9307;BME280;4691;47.612;7.610;2023-01-30T05:52:46;99672.78;;;-0.80;100.00
9307;BME280;4691;47.612;7.610;2023-01-30T05:55:11;99675.44;;;-0.82;100.00
9307;BME280;4691;47.612;7.610;2023-01-30T05:57:37;99683.28;;;-0.80;100.00
9307;BME280;4691;47.612;7.610;2023-01-30T06:00:04;99685.81;;;-0.76;100.00
9307;BME280;4691;47.612;7.610;2023-01-30T06:02:29;99689.16;;;-0.66;100.00
9307;BME280;4691;47.612;7.610;2023-01-30T06:04:55;99685.94;;;-0.35;100.00
9307;BME280;4691;47.612;7.610;2023-01-30T06:07:21;99681.25;;;-0.21;100.00
9307;BME280;4691;47.612;7.610;2023-01-30T06:09:46;99680.75;;;-0.38;100.00
9307;BME280;4691;47.612;7.610;2023-01-30T06:12:11;99666.09;;;-0.52;100.00
9307;BME280;4691;47.612;7.610;2023-01-30T06:14:36;99687.19;;;-0.55;100.00
9307;BME280;4691;47.612;7.610;2023-01-30T06:17:02;99689.00;;;-0.58;100.00
9307;BME280;4691;47.612;7.610;2023-01-30T06:19:27;99701.31;;;-0.60;100.00
9307;BME280;4691;47.612;7.610;2023-01-30T06:21:52;99697.69;;;-0.53;100.00
9307;BME280;4691;47.612;7.610;2023-01-30T06:24:18;99689.72;;;-0.49;100.00
9307;BME280;4691;47.612;7.610;2023-01-30T06:26:43;99692.38;;;-0.52;100.00
9307;BME280;4691;47.612;7.610;2023-01-30T06:29:08;99696.63;;;-0.45;100.00
9307;BME280;4691;47.612;7.610;2023-01-30T06:31:33;99729.94;;;-0.47;100.00
9307;BME280;4691;47.612;7.610;2023-01-30T06:33:59;99728.28;;;-0.51;100.00
9307;BME280;4691;47.612;7.610;2023-01-30T06:36:24;99724.59;;;-0.42;100.00
9307;BME280;4691;47.612;7.610;2023-01-30T06:38:49;99732.44;;;-0.39;100.00
9307;BME280;4691;47.612;7.610;2023-01-30T06:41:14;99738.31;;;-0.26;100.00
9307;BME280;4691;47.612;7.610;2023-01-30T06:43:41;99752.50;;;-0.33;100.00
9307;BME280;4691;47.612;7.610;2023-01-30T06:46:06;99748.97;;;-0.32;100.00
9307;BME280;4691;47.612;7.610;2023-01-30T06:48:32;99761.19;;;-0.31;100.00
9307;BME280;4691;47.612;7.610;2023-01-30T06:50:57;99766.63;;;-0.40;100.00
9307;BME280;4691;47.612;7.610;2023-01-30T06:53:23;99773.69;;;-0.42;100.00
9307;BME280;4691;47.612;7.610;2023-01-30T06:55:54;99771.19;;;-0.50;100.00
9307;BME280;4691;47.612;7.610;2023-01-30T06:58:20;99780.00;;;-0.53;100.00
9307;BME280;4691;47.612;7.610;2023-01-30T07:00:45;99770.34;;;-0.52;100.00
9307;BME280;4691;47.612;7.610;2023-01-30T07:03:12;99775.66;;;-0.54;100.00
9307;BME280;4691;47.612;7.610;2023-01-30T07:05:39;99772.09;;;-0.53;100.00
9307;BME280;4691;47.612;7.610;2023-01-30T07:08:05;99779.00;;;-0.46;100.00
9307;BME280;4691;47.612;7.610;2023-01-30T07:10:31;99780.66;;;-0.41;100.00
9307;BME280;4691;47.612;7.610;2023-01-30T07:12:57;99795.47;;;-0.36;100.00
9307;BME280;4691;47.612;7.610;2023-01-30T07:15:22;99787.44;;;-0.28;100.00
9307;BME280;4691;47.612;7.610;2023-01-30T07:17:48;99782.22;;;-0.30;100.00
9307;BME280;4691;47.612;7.610;2023-01-30T07:20:13;99772.53;;;-0.28;100.00
9307;BME280;4691;47.612;7.610;2023-01-30T07:22:38;99768.06;;;-0.24;100.00
9307;BME280;4691;47.612;7.610;2023-01-30T07:25:04;99770.69;;;-0.23;100.00
9307;BME280;4691;47.612;7.610;2023-01-30T07:27:30;99761.91;;;-0.22;100.00
9307;BME280;4691;47.612;7.610;2023-01-30T07:29:55;99781.28;;;-0.27;100.00
9307;BME280;4691;47.612;7.610;2023-01-30T07:32:20;99765.50;;;-0.26;100.00
9307;BME280;4691;47.612;7.610;2023-01-30T07:34:46;99749.81;;;-0.30;100.00
9307;BME280;4691;47.612;7.610;2023-01-30T07:37:12;99749.09;;;-0.38;100.00
9307;BME280;4691;47.612;7.610;2023-01-30T07:39:37;99744.66;;;-0.36;100.00
9307;BME280;4691;47.612;7.610;2023-01-30T07:42:03;99756.84;;;-0.31;100.00
9307;BME280;4691;47.612;7.610;2023-01-30T07:44:28;99749.91;;;-0.36;100.00
9307;BME280;4691;47.612;7.610;2023-01-30T07:46:54;99748.13;;;-0.34;100.00
9307;BME280;4691;47.612;7.610;2023-01-30T07:49:19;99752.53;;;-0.36;100.00
9307;BME280;4691;47.612;7.610;2023-01-30T07:51:45;99756.94;;;-0.37;100.00
9307;BME280;4691;47.612;7.610;2023-01-30T07:54:10;99748.81;;;-0.26;100.00
9307;BME280;4691;47.612;7.610;2023-01-30T07:56:36;99746.03;;;-0.15;100.00
9307;BME280;4691;47.612;7.610;2023-01-30T07:59:01;99753.56;;;0.02;100.00
9307;BME280;4691;47.612;7.610;2023-01-30T08:01:26;99757.75;;;0.10;100.00
9307;BME280;4691;47.612;7.610;2023-01-30T08:03:52;99760.38;;;0.12;100.00
9307;BME280;4691;47.612;7.610;2023-01-30T08:06:17;99763.38;;;0.35;100.00
9307;BME280;4691;47.612;7.610;2023-01-30T08:08:43;99757.84;;;0.48;100.00
9307;BME280;4691;47.612;7.610;2023-01-30T08:11:08;99761.06;;;0.20;100.00
9307;BME280;4691;47.612;7.610;2023-01-30T08:13:34;99781.22;;;0.21;100.00
9307;BME280;4691;47.612;7.610;2023-01-30T08:16:04;99780.22;;;0.27;100.00
9307;BME280;4691;47.612;7.610;2023-01-30T08:18:30;99790.88;;;0.20;100.00
9307;BME280;4691;47.612;7.610;2023-01-30T08:20:57;99795.03;;;0.32;100.00
9307;BME280;4691;47.612;7.610;2023-01-30T08:23:22;99794.16;;;0.32;100.00
9307;BME280;4691;47.612;7.610;2023-01-30T08:25:47;99801.25;;;0.70;100.00
9307;BME280;4691;47.612;7.610;2023-01-30T08:28:12;99794.75;;;1.22;100.00
9307;BME280;4691;47.612;7.610;2023-01-30T08:30:40;99794.38;;;1.38;100.00
9307;BME280;4691;47.612;7.610;2023-01-30T08:33:05;99789.63;;;1.16;100.00
9307;BME280;4691;47.612;7.610;2023-01-30T08:35:30;99804.97;;;0.99;100.00
9307;BME280;4691;47.612;7.610;2023-01-30T08:37:56;99809.31;;;0.62;100.00
9307;BME280;4691;47.612;7.610;2023-01-30T08:40:21;99798.50;;;0.75;100.00
9307;BME280;4691;47.612;7.610;2023-01-30T08:42:46;99807.38;;;0.69;100.00
9307;BME280;4691;47.612;7.610;2023-01-30T08:45:12;99811.84;;;0.67;100.00
9307;BME280;4691;47.612;7.610;2023-01-30T08:47:37;99803.28;;;0.56;100.00
9307;BME280;4691;47.612;7.610;2023-01-30T08:50:03;99802.09;;;0.71;100.00
9307;BME280;4691;47.612;7.610;2023-01-30T08:52:29;99803.69;;;0.78;100.00
9307;BME280;4691;47.612;7.610;2023-01-30T08:54:54;99795.38;;;0.96;100.00
9307;BME280;4691;47.612;7.610;2023-01-30T08:57:19;99802.25;;;1.03;100.00
9307;BME280;4691;47.612;7.610;2023-01-30T08:59:44;99808.97;;;1.15;100.00
9307;BME280;4691;47.612;7.610;2023-01-30T09:02:10;99815.47;;;1.38;100.00
9307;BME280;4691;47.612;7.610;2023-01-30T09:04:36;99825.78;;;1.09;100.00
9307;BME280;4691;47.612;7.610;2023-01-30T09:07:01;99828.47;;;1.44;100.00
9307;BME280;4691;47.612;7.610;2023-01-30T09:09:28;99818.84;;;2.10;100.00
9307;BME280;4691;47.612;7.610;2023-01-30T09:11:53;99824.50;;;1.96;100.00
9307;BME280;4691;47.612;7.610;2023-01-30T09:14:18;99823.88;;;2.19;100.00
9307;BME280;4691;47.612;7.610;2023-01-30T09:16:48;99824.97;;;2.43;100.00
9307;BME280;4691;47.612;7.610;2023-01-30T09:19:25;99837.09;;;2.19;100.00
9307;BME280;4691;47.612;7.610;2023-01-30T09:21:51;99840.81;;;2.43;100.00
9307;BME280;4691;47.612;7.610;2023-01-30T09:24:17;99838.28;;;2.07;100.00
9307;BME280;4691;47.612;7.610;2023-01-30T09:26:43;99854.44;;;2.28;100.00
9307;BME280;4691;47.612;7.610;2023-01-30T09:29:13;99858.09;;;2.22;100.00
9307;BME280;4691;47.612;7.610;2023-01-30T09:31:39;99867.81;;;2.22;100.00
9307;BME280;4691;47.612;7.610;2023-01-30T09:34:05;99865.56;;;2.06;100.00
9307;BME280;4691;47.612;7.610;2023-01-30T09:36:31;99874.81;;;2.23;100.00
9307;BME280;4691;47.612;7.610;2023-01-30T09:38:56;99873.50;;;2.06;100.00
9307;BME280;4691;47.612;7.610;2023-01-30T09:44:32;99873.97;;;1.88;100.00
9307;BME280;4691;47.612;7.610;2023-01-30T09:47:20;99870.91;;;1.70;100.00
9307;BME280;4691;47.612;7.610;2023-01-30T09:52:25;99859.16;;;2.16;100.00
9307;BME280;4691;47.612;7.610;2023-01-30T09:54:58;99854.38;;;1.98;100.00
9307;BME280;4691;47.612;7.610;2023-01-30T09:57:25;99843.13;;;1.90;100.00
9307;BME280;4691;47.612;7.610;2023-01-30T10:02:34;99830.94;;;2.18;100.00
9307;BME280;4691;47.612;7.610;2023-01-30T10:05:01;99839.69;;;2.52;100.00
9307;BME280;4691;47.612;7.610;2023-01-30T10:07:56;99837.06;;;2.52;100.00
9307;BME280;4691;47.612;7.610;2023-01-30T10:10:54;99795.28;;;5.80;100.00
9307;BME280;4691;47.612;7.610;2023-01-30T10:16:35;99735.22;;;7.48;100.00
9307;BME280;4691;47.612;7.610;2023-01-30T10:21:59;99739.34;;;7.36;100.00
9307;BME280;4691;47.612;7.610;2023-01-30T10:24:47;99724.41;;;7.68;100.00
9307;BME280;4691;47.612;7.610;2023-01-30T10:27:16;99698.91;;;8.31;100.00
9307;BME280;4691;47.612;7.610;2023-01-30T10:29:46;99665.91;;;10.14;100.00
9307;BME280;4691;47.612;7.610;2023-01-30T10:32:14;99671.59;;;9.65;100.00
9307;BME280;4691;47.612;7.610;2023-01-30T10:34:42;99648.00;;;9.29;100.00
9307;BME280;4691;47.612;7.610;2023-01-30T10:37:14;99695.41;;;9.84;100.00
9307;BME280;4691;47.612;7.610;2023-01-30T10:39:58;99717.66;;;6.53;100.00
9307;BME280;4691;47.612;7.610;2023-01-30T10:42:38;99733.22;;;4.99;100.00
9307;BME280;4691;47.612;7.610;2023-01-30T10:45:48;99713.31;;;6.70;100.00
9307;BME280;4691;47.612;7.610;2023-01-30T10:54:32;99744.59;;;4.33;100.00
9307;BME280;4691;47.612;7.610;2023-01-30T10:57:17;99744.59;;;4.33;100.00
9307;BME280;4691;47.612;7.610;2023-01-30T11:00:00;99735.94;;;4.06;100.00
9307;BME280;4691;47.612;7.610;2023-01-30T11:04:59;99745.97;;;3.71;100.00
9307;BME280;4691;47.612;7.610;2023-01-30T11:07:30;99743.66;;;3.37;100.00
9307;BME280;4691;47.612;7.610;2023-01-30T11:09:57;99743.22;;;3.23;100.00
9307;BME280;4691;47.612;7.610;2023-01-30T11:12:23;99732.16;;;3.38;100.00
9307;BME280;4691;47.612;7.610;2023-01-30T11:14:58;99725.44;;;3.28;100.00
9307;BME280;4691;47.612;7.610;2023-01-30T11:17:32;99713.38;;;3.71;100.00
9307;BME280;4691;47.612;7.610;2023-01-30T11:20:04;99709.91;;;3.69;100.00
9307;BME280;4691;47.612;7.610;2023-01-30T11:22:33;99693.44;;;4.09;100.00
9307;BME280;4691;47.612;7.610;2023-01-30T11:25:01;99683.69;;;4.33;100.00
9307;BME280;4691;47.612;7.610;2023-01-30T11:27:30;99689.34;;;4.48;100.00
9307;BME280;4691;47.612;7.610;2023-01-30T11:30:13;99683.41;;;4.41;100.00
9307;BME280;4691;47.612;7.610;2023-01-30T11:32:41;99683.78;;;4.98;100.00
9307;BME280;4691;47.612;7.610;2023-01-30T11:39:58;99647.94;;;5.90;100.00
9307;BME280;4691;47.612;7.610;2023-01-30T11:42:29;99634.91;;;5.26;100.00
9307;BME280;4691;47.612;7.610;2023-01-30T11:44:58;99641.78;;;4.67;100.00
9307;BME280;4691;47.612;7.610;2023-01-30T11:47:26;99630.31;;;4.66;100.00
9307;BME280;4691;47.612;7.610;2023-01-30T11:49:54;99624.84;;;4.49;100.00
9307;BME280;4691;47.612;7.610;2023-01-30T11:52:35;99621.75;;;4.82;100.00
9307;BME280;4691;47.612;7.610;2023-01-30T11:55:14;99593.25;;;5.48;100.00
9307;BME280;4691;47.612;7.610;2023-01-30T11:57:44;99574.16;;;6.88;100.00
9307;BME280;4691;47.612;7.610;2023-01-30T12:00:22;99552.69;;;6.03;100.00
9307;BME280;4691;47.612;7.610;2023-01-30T12:02:51;99583.47;;;5.30;100.00
9307;BME280;4691;47.612;7.610;2023-01-30T12:05:24;99589.00;;;6.02;100.00
9307;BME280;4691;47.612;7.610;2023-01-30T12:10:51;99576.22;;;5.13;100.00
9307;BME280;4691;47.612;7.610;2023-01-30T12:13:20;99577.53;;;5.23;100.00
9307;BME280;4691;47.612;7.610;2023-01-30T12:15:53;99562.22;;;5.50;100.00
9307;BME280;4691;47.612;7.610;2023-01-30T12:18:25;99566.22;;;5.19;100.00
9307;BME280;4691;47.612;7.610;2023-01-30T12:21:00;99559.41;;;5.53;100.00
9307;BME280;4691;47.612;7.610;2023-01-30T12:23:35;99571.56;;;5.38;100.00
9307;BME280;4691;47.612;7.610;2023-01-30T12:26:10;99573.88;;;5.46;100.00
9307;BME280;4691;47.612;7.610;2023-01-30T12:31:21;99583.69;;;4.83;100.00
9307;BME280;4691;47.612;7.610;2023-01-30T12:33:48;99591.59;;;4.84;100.00
9307;BME280;4691;47.612;7.610;2023-01-30T12:36:30;99588.91;;;4.86;100.00
9307;BME280;4691;47.612;7.610;2023-01-30T12:47:00;99591.47;;;5.08;100.00
9307;BME280;4691;47.612;7.610;2023-01-30T12:49:39;99590.09;;;4.99;100.00
9307;BME280;4691;47.612;7.610;2023-01-30T12:52:32;99586.81;;;4.92;100.00
9307;BME280;4691;47.612;7.610;2023-01-30T12:55:29;99597.25;;;4.97;100.00
9307;BME280;4691;47.612;7.610;2023-01-30T12:58:10;99606.50;;;4.87;100.00
9307;BME280;4691;47.612;7.610;2023-01-30T13:11:35;99599.88;;;4.76;100.00
9307;BME280;4691;47.612;7.610;2023-01-30T13:14:25;99597.88;;;4.82;100.00
9307;BME280;4691;47.612;7.610;2023-01-30T13:23:00;99581.38;;;5.16;100.00
9307;BME280;4691;47.612;7.610;2023-01-30T13:25:39;99581.84;;;4.85;100.00
9307;BME280;4691;47.612;7.610;2023-01-30T13:28:22;99576.16;;;5.14;100.00
9307;BME280;4691;47.612;7.610;2023-01-30T13:30:51;99582.72;;;5.06;100.00
9307;BME280;4691;47.612;7.610;2023-01-30T13:33:31;99581.72;;;5.08;100.00
9307;BME280;4691;47.612;7.610;2023-01-30T13:38:39;99556.34;;;5.23;100.00
9307;BME280;4691;47.612;7.610;2023-01-30T13:41:09;99556.19;;;5.26;100.00
9307;BME280;4691;47.612;7.610;2023-01-30T13:43:40;99571.78;;;4.93;100.00
9307;BME280;4691;47.612;7.610;2023-01-30T13:46:10;99580.59;;;4.73;100.00
9307;BME280;4691;47.612;7.610;2023-01-30T13:51:56;99585.56;;;3.92;100.00
9307;BME280;4691;47.612;7.610;2023-01-30T14:02:18;99589.59;;;3.79;100.00
9307;BME280;4691;47.612;7.610;2023-01-30T14:04:46;99595.97;;;3.75;100.00
9307;BME280;4691;47.612;7.610;2023-01-30T14:07:32;99596.41;;;3.63;100.00
9307;BME280;4691;47.612;7.610;2023-01-30T14:12:35;99588.13;;;3.72;100.00
9307;BME280;4691;47.612;7.610;2023-01-30T14:18:02;99586.28;;;3.74;100.00
9307;BME280;4691;47.612;7.610;2023-01-30T14:20:35;99575.94;;;3.68;100.00
9307;BME280;4691;47.612;7.610;2023-01-30T14:23:01;99587.41;;;3.67;100.00
9307;BME280;4691;47.612;7.610;2023-01-30T14:28:36;99597.66;;;3.76;100.00
9307;BME280;4691;47.612;7.610;2023-01-30T14:38:30;99607.22;;;3.80;100.00
9307;BME280;4691;47.612;7.610;2023-01-30T14:43:46;99601.31;;;3.96;100.00
9307;BME280;4691;47.612;7.610;2023-01-30T14:51:32;99605.72;;;3.73;100.00
9307;BME280;4691;47.612;7.610;2023-01-30T14:56:47;99608.00;;;3.82;100.00
9307;BME280;4691;47.612;7.610;2023-01-30T15:02:00;99621.25;;;3.82;100.00
9307;BME280;4691;47.612;7.610;2023-01-30T15:04:30;99624.69;;;3.84;100.00
9307;BME280;4691;47.612;7.610;2023-01-30T15:06:58;99626.25;;;3.90;100.00
9307;BME280;4691;47.612;7.610;2023-01-30T15:09:26;99626.44;;;3.85;100.00
9307;BME280;4691;47.612;7.610;2023-01-30T15:17:54;99638.09;;;3.80;100.00
9307;BME280;4691;47.612;7.610;2023-01-30T15:20:42;99650.41;;;3.81;100.00
9307;BME280;4691;47.612;7.610;2023-01-30T15:31:32;99643.28;;;3.83;100.00
9307;BME280;4691;47.612;7.610;2023-01-30T15:34:00;99648.59;;;3.83;100.00
9307;BME280;4691;47.612;7.610;2023-01-30T15:41:26;99648.88;;;3.75;100.00
9307;BME280;4691;47.612;7.610;2023-01-30T15:49:53;99642.97;;;3.67;100.00
9307;BME280;4691;47.612;7.610;2023-01-30T15:52:20;99637.19;;;3.57;100.00
9307;BME280;4691;47.612;7.610;2023-01-30T15:54:48;99643.38;;;3.56;100.00
9307;BME280;4691;47.612;7.610;2023-01-30T15:57:24;99640.72;;;3.56;100.00
9307;BME280;4691;47.612;7.610;2023-01-30T15:59:52;99643.53;;;3.52;100.00
9307;BME280;4691;47.612;7.610;2023-01-30T16:02:30;99640.09;;;3.49;100.00
9307;BME280;4691;47.612;7.610;2023-01-30T16:05:18;99632.88;;;3.55;100.00
9307;BME280;4691;47.612;7.610;2023-01-30T16:07:45;99630.38;;;3.50;100.00